createdAt,value
2018-09-01T00:00:11.949Z,16.18
2018-09-01T00:02:41.813Z,16.12
2018-09-01T00:05:11.893Z,16.07
2018-09-01T00:07:42.426Z,16.02
2018-09-01T00:10:12.659Z,15.98
2018-09-01T00:12:42.061Z,15.92
2018-09-01T00:15:14.872Z,15.87
2018-09-01T00:17:43.931Z,15.83
2018-09-01T00:20:13.563Z,15.78
2018-09-01T00:22:44.930Z,15.75
2018-09-01T00:25:14.579Z,15.70
2018-09-01T00:27:43.833Z,15.67
2018-09-01T00:30:13.852Z,15.62
2018-09-01T00:32:43.913Z,15.60
2018-09-01T00:35:13.099Z,15.58
2018-09-01T00:37:48.150Z,15.57
2018-09-01T00:40:24.553Z,15.54
2018-09-01T00:42:55.224Z,15.52
2018-09-01T00:45:31.384Z,15.51
2018-09-01T00:48:00.408Z,15.49
2018-09-01T00:50:29.404Z,15.47
2018-09-01T00:52:59.021Z,15.46
2018-09-01T00:55:31.673Z,15.47
2018-09-01T00:58:01.730Z,15.48
2018-09-01T01:00:31.233Z,15.47
2018-09-01T01:03:00.302Z,15.45
2018-09-01T01:05:31.520Z,15.41
2018-09-01T01:08:03.143Z,15.39
2018-09-01T01:10:32.206Z,15.37
2018-09-01T01:13:02.000Z,15.33
2018-09-01T01:15:32.772Z,15.32
2018-09-01T01:18:02.117Z,15.30
2018-09-01T01:20:31.716Z,15.26
2018-09-01T01:23:01.108Z,15.27
2018-09-01T01:25:30.239Z,15.25
2018-09-01T01:27:59.428Z,15.25
2018-09-01T01:30:28.767Z,15.22
2018-09-01T01:32:58.272Z,15.19
2018-09-01T01:35:27.729Z,15.17
2018-09-01T01:37:56.755Z,15.14
2018-09-01T01:40:25.772Z,15.10
2018-09-01T01:42:55.885Z,15.04
2018-09-01T01:45:26.227Z,15.03
2018-09-01T01:47:59.135Z,15.01
2018-09-01T01:50:28.515Z,14.98
2018-09-01T01:52:58.798Z,14.93
2018-09-01T01:55:28.082Z,14.91
2018-09-01T01:57:58.231Z,14.88
2018-09-01T02:00:27.684Z,14.86
2018-09-01T02:02:57.696Z,14.84
2018-09-01T02:05:31.825Z,14.83
2018-09-01T02:08:03.480Z,14.79
2018-09-01T02:10:34.778Z,14.77
2018-09-01T02:13:04.671Z,14.71
2018-09-01T02:15:35.176Z,14.66
2018-09-01T02:18:04.789Z,14.63
2018-09-01T02:20:34.045Z,14.60
2018-09-01T02:23:04.178Z,14.55
2018-09-01T02:25:34.437Z,14.49
2018-09-01T02:28:04.406Z,14.47
2018-09-01T02:30:33.848Z,14.43
2018-09-01T02:33:03.933Z,14.40
2018-09-01T02:35:34.806Z,14.38
2018-09-01T02:38:06.273Z,14.35
2018-09-01T02:40:35.419Z,14.34
2018-09-01T02:43:06.179Z,14.33
2018-09-01T02:45:35.795Z,14.32
2018-09-01T02:48:05.257Z,14.30
2018-09-01T02:50:34.671Z,14.30
2018-09-01T02:53:05.147Z,14.29
2018-09-01T02:55:34.665Z,14.29
2018-09-01T02:58:04.096Z,14.27
2018-09-01T03:00:36.947Z,14.24
2018-09-01T03:03:08.836Z,14.22
2018-09-01T03:05:39.057Z,14.18
2018-09-01T03:08:08.852Z,14.14
2018-09-01T03:10:39.165Z,14.11
2018-09-01T03:13:09.326Z,14.08
2018-09-01T03:15:38.718Z,14.06
2018-09-01T03:18:08.183Z,14.02
2018-09-01T03:20:40.576Z,14.01
2018-09-01T03:23:09.690Z,13.97
2018-09-01T03:25:41.139Z,13.94
2018-09-01T03:28:11.773Z,13.91
2018-09-01T03:30:42.524Z,13.89
2018-09-01T03:33:11.621Z,13.87
2018-09-01T03:35:41.519Z,13.88
2018-09-01T03:38:12.075Z,13.87
2018-09-01T03:40:41.156Z,13.82
2018-09-01T03:43:13.155Z,13.81
2018-09-01T03:45:43.048Z,13.79
2018-09-01T03:48:13.716Z,13.80
2018-09-01T03:50:43.801Z,13.80
2018-09-01T03:53:13.713Z,13.80
2018-09-01T03:55:43.337Z,13.82
2018-09-01T03:58:14.511Z,13.81
2018-09-01T04:00:43.644Z,13.82
2018-09-01T04:03:13.508Z,13.81
2018-09-01T04:05:44.280Z,13.81
2018-09-01T04:08:14.301Z,13.79
2018-09-01T04:10:45.933Z,13.80
2018-09-01T04:13:16.920Z,13.79
2018-09-01T04:15:48.186Z,13.79
2018-09-01T04:18:20.844Z,13.77
2018-09-01T04:20:50.876Z,13.74
2018-09-01T04:23:21.090Z,13.72
2018-09-01T04:25:51.541Z,13.70
2018-09-01T04:28:22.482Z,13.67
2018-09-01T04:30:53.482Z,13.65
2018-09-01T04:33:23.012Z,13.64
2018-09-01T04:35:53.214Z,13.62
2018-09-01T04:38:23.321Z,13.59
2018-09-01T04:40:53.902Z,13.58
2018-09-01T04:43:24.691Z,13.58
2018-09-01T04:45:55.982Z,13.56
2018-09-01T04:48:26.593Z,13.53
2018-09-01T04:50:56.144Z,13.50
2018-09-01T04:53:28.806Z,13.47
2018-09-01T04:55:58.899Z,13.48
2018-09-01T04:58:30.041Z,13.47
2018-09-01T05:00:59.723Z,13.48
2018-09-01T05:03:32.429Z,13.50
2018-09-01T05:06:02.293Z,13.51
2018-09-01T05:08:32.953Z,13.56
2018-09-01T05:11:02.698Z,13.58
2018-09-01T05:13:32.274Z,13.64
2018-09-01T05:16:02.606Z,13.67
2018-09-01T05:18:33.176Z,13.73
2018-09-01T05:21:02.377Z,13.81
2018-09-01T05:23:32.224Z,13.92
2018-09-01T05:26:02.576Z,14.07
2018-09-01T05:28:32.470Z,14.29
2018-09-01T05:31:02.715Z,14.58
2018-09-01T05:33:32.589Z,14.88
2018-09-01T05:36:05.320Z,15.23
2018-09-01T05:38:37.569Z,15.50
2018-09-01T05:41:08.167Z,15.78
2018-09-01T05:43:38.371Z,16.04
2018-09-01T05:46:09.160Z,16.33
2018-09-01T05:48:38.240Z,16.65
2018-09-01T05:51:10.177Z,17.04
2018-09-01T05:53:40.344Z,17.52
2018-09-01T05:56:10.626Z,17.96
2018-09-01T05:58:40.605Z,18.36
2018-09-01T06:01:10.656Z,18.82
2018-09-01T06:03:39.683Z,19.24
2018-09-01T06:06:10.672Z,19.71
2018-09-01T06:08:41.660Z,20.29
2018-09-01T06:11:13.848Z,20.84
2018-09-01T06:13:43.595Z,21.28
2018-09-01T06:16:14.634Z,21.60
2018-09-01T06:18:45.374Z,21.86
2018-09-01T06:21:15.367Z,22.11
2018-09-01T06:23:44.488Z,22.33
2018-09-01T06:26:13.702Z,22.48
2018-09-01T06:28:46.400Z,22.56
2018-09-01T06:31:19.483Z,22.69
2018-09-01T06:33:52.046Z,22.88
2018-09-01T06:36:25.633Z,23.03
2018-09-01T06:38:55.756Z,23.20
2018-09-01T06:41:25.745Z,23.38
2018-09-01T06:43:56.163Z,23.61
2018-09-01T06:46:26.033Z,23.93
2018-09-01T06:48:55.168Z,24.29
2018-09-01T06:51:25.360Z,24.78
2018-09-01T06:53:55.893Z,25.29
2018-09-01T06:56:26.225Z,25.68
2018-09-01T06:58:57.954Z,25.97
2018-09-01T07:01:28.086Z,26.28
2018-09-01T07:04:00.152Z,26.59
2018-09-01T07:06:30.348Z,26.86
2018-09-01T07:09:02.998Z,27.04
2018-09-01T07:11:32.809Z,27.11
2018-09-01T07:14:02.335Z,27.09
2018-09-01T07:16:31.853Z,27.02
2018-09-01T07:19:02.928Z,26.92
2018-09-01T07:21:33.147Z,26.82
2018-09-01T07:24:03.228Z,26.79
2018-09-01T07:26:35.394Z,26.78
2018-09-01T07:29:07.597Z,26.78
2018-09-01T07:31:39.278Z,26.72
2018-09-01T07:34:08.724Z,26.74
2018-09-01T07:36:38.054Z,26.65
2018-09-01T07:39:08.452Z,26.49
2018-09-01T07:41:38.196Z,26.18
2018-09-01T07:44:07.585Z,25.91
2018-09-01T07:46:40.041Z,25.76
2018-09-01T07:49:10.702Z,25.63
2018-09-01T07:51:40.318Z,25.53
2018-09-01T07:54:09.744Z,25.42
2018-09-01T07:56:39.557Z,25.21
2018-09-01T07:59:08.964Z,24.90
2018-09-01T08:01:38.412Z,24.63
2018-09-01T08:04:08.245Z,24.53
2018-09-01T08:06:38.215Z,24.57
2018-09-01T08:09:10.942Z,24.64
2018-09-01T08:11:40.262Z,24.67
2018-09-01T08:14:10.241Z,24.70
2018-09-01T08:16:42.145Z,24.77
2018-09-01T08:19:12.225Z,24.83
2018-09-01T08:21:42.951Z,24.83
2018-09-01T08:24:13.223Z,24.84
2018-09-01T08:26:42.926Z,24.81
2018-09-01T08:29:13.217Z,24.63
2018-09-01T08:31:46.139Z,24.53
2018-09-01T08:34:17.411Z,24.43
2018-09-01T08:36:46.832Z,24.32
2018-09-01T08:39:16.533Z,24.47
2018-09-01T08:41:47.119Z,24.70
2018-09-01T08:44:16.841Z,24.87
2018-09-01T08:46:46.140Z,25.01
2018-09-01T08:49:17.518Z,25.10
2018-09-01T08:51:47.092Z,24.96
2018-09-01T08:54:17.223Z,24.91
2018-09-01T08:56:46.749Z,24.94
2018-09-01T08:59:16.089Z,24.94
2018-09-01T09:01:46.605Z,24.94
2018-09-01T09:04:18.411Z,24.82
2018-09-01T09:06:52.107Z,24.55
2018-09-01T09:09:25.991Z,24.21
2018-09-01T09:11:56.076Z,23.90
2018-09-01T09:14:27.238Z,23.72
2018-09-01T09:16:59.314Z,23.63
2018-09-01T09:19:29.290Z,23.55
2018-09-01T09:22:01.245Z,23.47
2018-09-01T09:24:33.216Z,23.36
2018-09-01T09:27:05.482Z,23.43
2018-09-01T09:29:35.021Z,23.48
2018-09-01T09:32:04.970Z,23.51
2018-09-01T09:34:35.090Z,23.51
2018-09-01T09:37:05.129Z,23.55
2018-09-01T09:39:37.975Z,23.63
2018-09-01T09:42:08.713Z,23.70
2018-09-01T09:44:41.890Z,23.72
2018-09-01T09:47:11.498Z,23.81
2018-09-01T09:49:43.002Z,23.83
2018-09-01T09:54:58.849Z,23.77
2018-09-01T09:57:28.667Z,23.80
2018-09-01T09:59:58.857Z,23.88
2018-09-01T10:02:28.413Z,23.95
2018-09-01T10:04:57.875Z,24.06
2018-09-01T10:07:27.137Z,24.24
2018-09-01T10:09:56.950Z,24.39
2018-09-01T10:12:26.758Z,24.41
2018-09-01T10:14:56.447Z,24.45
2018-09-01T10:17:25.647Z,24.59
2018-09-01T10:19:55.552Z,24.58
2018-09-01T10:22:26.723Z,24.45
2018-09-01T10:24:56.071Z,24.58
2018-09-01T10:27:25.663Z,24.79
2018-09-01T10:29:55.992Z,25.00
2018-09-01T10:32:27.169Z,25.32
2018-09-01T10:34:56.508Z,25.65
2018-09-01T10:37:27.426Z,25.98
2018-09-01T10:39:58.005Z,26.14
2018-09-01T10:42:28.469Z,26.06
2018-09-01T10:44:58.016Z,25.84
2018-09-01T10:47:28.279Z,25.53
2018-09-01T10:49:59.208Z,25.25
2018-09-01T10:52:28.538Z,25.09
2018-09-01T10:54:57.777Z,24.93
2018-09-01T10:57:27.569Z,24.71
2018-09-01T10:59:56.966Z,24.51
2018-09-01T11:02:26.243Z,24.38
2018-09-01T11:04:57.211Z,24.29
2018-09-01T11:07:26.779Z,24.24
2018-09-01T11:09:56.246Z,24.23
2018-09-01T11:12:27.116Z,24.15
2018-09-01T11:14:56.600Z,24.06
2018-09-01T11:17:27.019Z,23.96
2018-09-01T11:20:02.434Z,23.96
2018-09-01T11:22:32.039Z,24.02
2018-09-01T11:25:03.848Z,23.96
2018-09-01T11:27:34.279Z,23.84
2018-09-01T11:30:04.629Z,23.71
2018-09-01T11:32:37.463Z,23.62
2018-09-01T11:35:09.550Z,23.50
2018-09-01T11:37:39.483Z,23.42
2018-09-01T11:40:09.052Z,23.38
2018-09-01T11:42:39.138Z,23.35
2018-09-01T11:45:08.428Z,23.44
2018-09-01T11:47:37.727Z,23.85
2018-09-01T11:50:07.658Z,24.41
2018-09-01T11:52:39.665Z,24.81
2018-09-01T11:55:09.427Z,24.99
2018-09-01T11:57:45.437Z,25.09
2018-09-01T12:00:15.143Z,25.16
2018-09-01T12:02:44.857Z,25.25
2018-09-01T12:05:16.968Z,25.38
2018-09-01T12:07:46.395Z,25.48
2018-09-01T12:10:16.812Z,25.56
2018-09-01T12:12:46.119Z,25.65
2018-09-01T12:15:16.672Z,25.64
2018-09-01T12:17:49.464Z,25.56
2018-09-01T12:20:21.222Z,25.46
2018-09-01T12:22:52.678Z,25.30
2018-09-01T12:25:23.814Z,25.15
2018-09-01T12:27:56.451Z,25.06
2018-09-01T12:30:26.845Z,24.98
2018-09-01T12:32:56.246Z,24.98
2018-09-01T12:35:28.519Z,25.06
2018-09-01T12:37:58.173Z,25.12
2018-09-01T12:40:27.378Z,25.12
2018-09-01T12:42:56.996Z,25.11
2018-09-01T12:45:28.238Z,25.03
2018-09-01T12:47:57.882Z,24.96
2018-09-01T12:50:29.251Z,24.92
2018-09-01T12:52:59.271Z,24.92
2018-09-01T12:55:28.870Z,24.96
2018-09-01T12:57:58.509Z,24.99
2018-09-01T13:00:28.747Z,24.99
2018-09-01T13:02:59.366Z,25.02
2018-09-01T13:05:31.177Z,25.12
2018-09-01T13:08:00.662Z,25.20
2018-09-01T13:10:29.989Z,25.23
2018-09-01T13:12:59.519Z,25.18
2018-09-01T13:15:30.851Z,25.19
2018-09-01T13:18:00.445Z,25.18
2018-09-01T13:20:29.746Z,25.12
2018-09-01T13:23:01.679Z,25.08
2018-09-01T13:25:31.451Z,25.02
2018-09-01T13:28:01.597Z,25.01
2018-09-01T13:30:31.151Z,25.06
2018-09-01T13:33:00.450Z,25.08
2018-09-01T13:35:30.987Z,25.05
2018-09-01T13:38:01.728Z,25.01
2018-09-01T13:40:31.788Z,24.97
2018-09-01T13:43:02.570Z,24.93
2018-09-01T13:45:32.568Z,24.93
2018-09-01T13:48:06.980Z,24.96
2018-09-01T13:50:36.962Z,25.00
2018-09-01T13:53:06.790Z,25.09
2018-09-01T13:55:36.591Z,25.19
2018-09-01T13:58:05.984Z,25.29
2018-09-01T14:00:36.082Z,25.36
2018-09-01T14:03:05.834Z,25.40
2018-09-01T14:05:37.906Z,25.40
2018-09-01T14:08:07.218Z,25.31
2018-09-01T14:10:37.679Z,25.19
2018-09-01T14:13:09.029Z,25.13
2018-09-01T14:15:39.599Z,25.16
2018-09-01T14:18:09.164Z,25.23
2018-09-01T14:20:38.964Z,25.23
2018-09-01T14:23:08.629Z,25.16
2018-09-01T14:25:40.694Z,25.06
2018-09-01T14:28:11.749Z,24.96
2018-09-01T14:30:42.567Z,24.88
2018-09-01T14:33:12.915Z,24.85
2018-09-01T14:35:42.524Z,24.85
2018-09-01T14:38:17.315Z,24.85
2018-09-01T14:40:46.856Z,24.81
2018-09-01T14:43:18.719Z,24.80
2018-09-01T14:45:48.908Z,24.77
2018-09-01T14:48:19.285Z,24.71
2018-09-01T14:50:49.131Z,24.67
2018-09-01T14:53:19.630Z,24.62
2018-09-01T14:55:49.523Z,24.61
2018-09-01T14:58:21.973Z,24.61
2018-09-01T15:00:52.671Z,24.63
2018-09-01T15:03:24.936Z,24.60
2018-09-01T15:05:55.852Z,24.55
2018-09-01T15:08:25.762Z,24.52
2018-09-01T15:10:55.897Z,24.55
2018-09-01T15:13:29.456Z,24.56
2018-09-01T15:16:00.312Z,24.52
2018-09-01T15:18:30.261Z,24.50
2018-09-01T15:21:01.824Z,24.46
2018-09-01T15:23:34.678Z,24.41
2018-09-01T15:26:05.218Z,24.35
2018-09-01T15:28:35.094Z,24.31
2018-09-01T15:31:08.427Z,24.27
2018-09-01T15:33:38.258Z,24.20
2018-09-01T15:36:08.202Z,24.14
2018-09-01T15:38:38.527Z,24.08
2018-09-01T15:41:09.875Z,24.03
2018-09-01T15:43:40.522Z,24.01
2018-09-01T15:46:10.555Z,23.98
2018-09-01T15:48:42.033Z,23.96
2018-09-01T15:51:17.362Z,23.94
2018-09-01T15:53:50.407Z,23.92
2018-09-01T15:56:22.287Z,23.88
2018-09-01T15:58:53.664Z,23.86
2018-09-01T16:01:30.186Z,23.84
2018-09-01T16:04:08.629Z,23.82
2018-09-01T16:06:40.318Z,23.79
2018-09-01T16:09:12.375Z,23.81
2018-09-01T16:11:43.906Z,23.84
2018-09-01T16:14:13.546Z,23.86
2018-09-01T16:16:43.609Z,23.84
2018-09-01T16:19:14.163Z,23.81
2018-09-01T16:21:44.254Z,23.81
2018-09-01T16:24:14.107Z,23.79
2018-09-01T16:26:44.202Z,23.78
2018-09-01T16:29:15.111Z,23.75
2018-09-01T16:31:45.383Z,23.72
2018-09-01T16:34:19.381Z,23.70
2018-09-01T16:36:49.907Z,23.67
2018-09-01T16:39:20.506Z,23.63
2018-09-01T16:41:50.366Z,23.59
2018-09-01T16:44:20.556Z,23.53
2018-09-01T16:46:50.569Z,23.49
2018-09-01T16:49:20.347Z,23.46
2018-09-01T16:51:50.950Z,23.44
2018-09-01T16:54:21.704Z,23.40
2018-09-01T16:56:52.605Z,23.34
2018-09-01T16:59:27.208Z,23.29
2018-09-01T17:01:59.428Z,23.26
2018-09-01T17:04:30.247Z,23.22
2018-09-01T17:07:19.413Z,23.17
2018-09-01T17:09:49.196Z,23.09
2018-09-01T17:12:20.196Z,23.05
2018-09-01T17:14:49.987Z,23.03
2018-09-01T17:17:20.991Z,22.99
2018-09-01T17:19:51.148Z,22.93
2018-09-01T17:22:22.535Z,22.90
2018-09-01T17:24:52.648Z,22.84
2018-09-01T17:27:30.633Z,22.77
2018-09-01T17:30:00.545Z,22.72
2018-09-01T17:32:32.830Z,22.67
2018-09-01T17:35:02.853Z,22.61
2018-09-01T17:37:33.153Z,22.55
2018-09-01T17:40:03.293Z,22.49
2018-09-01T17:42:33.286Z,22.43
2018-09-01T17:45:04.269Z,22.37
2018-09-01T17:47:34.035Z,22.32
2018-09-01T17:50:03.679Z,22.26
2018-09-01T17:52:33.431Z,22.19
2018-09-01T17:55:04.007Z,22.11
2018-09-01T17:57:38.570Z,22.04
2018-09-01T18:00:10.568Z,21.97
2018-09-01T18:02:41.175Z,21.88
2018-09-01T18:05:14.508Z,21.81
2018-09-01T18:07:44.358Z,21.75
2018-09-01T18:10:15.296Z,21.66
2018-09-01T18:12:47.113Z,21.57
2018-09-01T18:15:16.833Z,21.48
2018-09-01T18:17:47.858Z,21.39
2018-09-01T18:20:17.705Z,21.30
2018-09-01T18:22:47.643Z,21.21
2018-09-01T18:25:17.470Z,21.13
2018-09-01T18:27:47.411Z,21.04
2018-09-01T18:30:17.143Z,20.96
2018-09-01T18:32:48.241Z,20.86
2018-09-01T18:35:18.310Z,20.81
2018-09-01T18:37:49.672Z,20.76
2018-09-01T18:40:22.839Z,20.69
2018-09-01T18:42:53.540Z,20.63
2018-09-01T18:45:23.868Z,20.55
2018-09-01T18:47:54.921Z,20.50
2018-09-01T18:50:24.761Z,20.47
2018-09-01T18:52:56.640Z,20.47
2018-09-01T18:55:28.683Z,20.44
2018-09-01T18:57:59.413Z,20.40
2018-09-01T19:00:33.004Z,20.36
2018-09-01T19:03:11.806Z,20.35
2018-09-01T19:05:46.774Z,20.30
2018-09-01T19:08:21.805Z,20.28
2018-09-01T19:13:33.808Z,20.23
2018-09-01T19:16:02.845Z,20.21
2018-09-01T19:18:32.374Z,20.20
2018-09-01T19:21:01.731Z,20.20
2018-09-01T19:23:31.055Z,20.16
2018-09-01T19:26:00.602Z,20.14
2018-09-01T19:28:29.761Z,20.10
2018-09-01T19:30:59.246Z,20.05
2018-09-01T19:33:29.113Z,19.99
2018-09-01T19:35:58.349Z,19.89
2018-09-01T19:38:27.776Z,19.80
2018-09-01T19:40:57.047Z,19.72
2018-09-01T19:43:26.653Z,19.60
2018-09-01T19:45:56.140Z,19.52
2018-09-01T19:48:25.183Z,19.43
2018-09-01T19:50:54.803Z,19.35
2018-09-01T19:53:24.139Z,19.27
2018-09-01T19:55:54.040Z,19.21
2018-09-01T19:58:23.656Z,19.13
2018-09-01T20:00:53.150Z,19.07
2018-09-01T20:03:22.272Z,19.00
2018-09-01T20:05:51.381Z,18.92
2018-09-01T20:08:20.494Z,18.86
2018-09-01T20:10:49.538Z,18.80
2018-09-01T20:13:18.646Z,18.72
2018-09-01T20:15:47.997Z,18.63
2018-09-01T20:18:17.044Z,18.58
2018-09-01T20:20:46.171Z,18.50
2018-09-01T20:23:15.566Z,18.43
2018-09-01T20:25:44.697Z,18.36
2018-09-01T20:28:13.938Z,18.28
2018-09-01T20:30:42.984Z,18.22
2018-09-01T20:33:12.118Z,18.15
2018-09-01T20:35:46.656Z,18.11
2018-09-01T20:38:16.634Z,18.05
2018-09-01T20:40:45.800Z,18.00
2018-09-01T20:43:14.900Z,17.96
2018-09-01T20:45:44.233Z,17.92
2018-09-01T20:48:13.713Z,17.87
2018-09-01T20:50:42.981Z,17.85
2018-09-01T20:53:12.274Z,17.84
2018-09-01T20:55:41.948Z,17.81
2018-09-01T20:58:12.670Z,17.78
2018-09-01T21:00:41.891Z,17.73
2018-09-01T21:03:11.055Z,17.69
2018-09-01T21:05:41.552Z,17.63
2018-09-01T21:08:11.886Z,17.59
2018-09-01T21:10:41.302Z,17.52
2018-09-01T21:13:10.474Z,17.47
2018-09-01T21:15:40.030Z,17.44
2018-09-01T21:18:09.187Z,17.39
2018-09-01T21:20:38.243Z,17.35
2018-09-01T21:23:07.392Z,17.34
2018-09-01T21:25:36.575Z,17.31
2018-09-01T21:28:05.740Z,17.30
2018-09-01T21:30:34.979Z,17.29
2018-09-01T21:33:04.296Z,17.27
2018-09-01T21:35:33.384Z,17.28
2018-09-01T21:38:02.405Z,17.26
2018-09-01T21:40:31.492Z,17.25
2018-09-01T21:43:00.631Z,17.24
2018-09-01T21:45:29.720Z,17.21
2018-09-01T21:47:58.741Z,17.18
2018-09-01T21:50:27.836Z,17.14
2018-09-01T21:52:57.104Z,17.11
2018-09-01T21:55:26.175Z,17.09
2018-09-01T21:57:55.270Z,17.07
2018-09-01T22:00:24.309Z,17.05
2018-09-01T22:02:53.961Z,17.03
2018-09-01T22:05:23.591Z,17.02
2018-09-01T22:07:52.715Z,17.00
2018-09-01T22:10:21.792Z,16.95
2018-09-01T22:12:50.899Z,16.89
2018-09-01T22:15:19.937Z,16.85
2018-09-01T22:17:49.060Z,16.82
2018-09-01T22:20:18.122Z,16.77
2018-09-01T22:22:47.254Z,16.74
2018-09-01T22:25:16.394Z,16.70
2018-09-01T22:27:45.440Z,16.67
2018-09-01T22:30:14.565Z,16.64
2018-09-01T22:32:43.701Z,16.61
2018-09-01T22:35:12.825Z,16.58
2018-09-01T22:37:41.916Z,16.52
2018-09-01T22:40:12.009Z,16.47
2018-09-01T22:42:41.109Z,16.45
2018-09-01T22:45:10.240Z,16.42
2018-09-01T22:47:39.835Z,16.38
2018-09-01T22:50:08.968Z,16.34
2018-09-01T22:52:38.039Z,16.32
2018-09-01T22:55:07.395Z,16.28
2018-09-01T22:57:36.753Z,16.26
2018-09-01T23:00:06.090Z,16.22
2018-09-01T23:02:35.149Z,16.19
2018-09-01T23:05:04.526Z,16.17
2018-09-01T23:07:33.606Z,16.15
2018-09-01T23:10:02.701Z,16.11
2018-09-01T23:12:31.981Z,16.08
2018-09-01T23:15:01.703Z,16.08
2018-09-01T23:17:31.710Z,16.08
2018-09-01T23:20:01.896Z,16.07
2018-09-01T23:22:32.473Z,16.05
2018-09-01T23:25:01.937Z,16.05
2018-09-01T23:27:32.136Z,16.03
2018-09-01T23:30:02.092Z,16.00
2018-09-01T23:32:31.156Z,15.99
2018-09-01T23:35:00.224Z,15.98
2018-09-01T23:37:29.275Z,15.96
2018-09-01T23:39:58.301Z,15.93
2018-09-01T23:42:27.358Z,15.92
2018-09-01T23:44:56.391Z,15.90
2018-09-01T23:47:25.472Z,15.91
2018-09-01T23:49:54.500Z,15.91
2018-09-01T23:52:23.563Z,15.88
2018-09-01T23:54:52.637Z,15.87
2018-09-01T23:57:21.685Z,15.82
2018-09-01T23:59:51.214Z,15.76
